TimePST,TemperatureF,Dew PointF,Humidity,Sea Level PressureIn,VisibilityMPH,Wind Direction,Wind SpeedMPH,Gust SpeedMPH,PrecipitationIn,Events,Conditions,WindDirDegrees,DateUTC
12:56 AM,39.0,33.1,79,30.15,10.0,ENE,5.8,-,N/A,,Clear,60,2012-12-30 08:56:00
1:56 AM,39.0,33.1,79,30.16,10.0,ENE,5.8,-,N/A,,Clear,60,2012-12-30 09:56:00
2:56 AM,37.9,32.0,79,30.16,10.0,NE,5.8,-,N/A,,Clear,50,2012-12-30 10:56:00
3:56 AM,37.9,32.0,79,30.15,10.0,NE,6.9,-,N/A,,Clear,50,2012-12-30 11:56:00
4:56 AM,39.0,32.0,76,30.15,10.0,ENE,8.1,-,N/A,,Clear,60,2012-12-30 12:56:00
5:56 AM,37.9,32.0,79,30.15,10.0,NE,6.9,-,N/A,,Clear,50,2012-12-30 13:56:00
6:56 AM,37.9,32.0,79,30.16,10.0,NE,6.9,-,N/A,,Clear,50,2012-12-30 14:56:00
7:56 AM,37.9,32.0,79,30.18,10.0,East,3.5,-,N/A,,Clear,80,2012-12-30 15:56:00
8:56 AM,41.0,33.1,73,30.20,10.0,ENE,4.6,-,N/A,,Clear,60,2012-12-30 16:56:00
9:56 AM,45.0,35.1,68,30.22,10.0,Calm,Calm,-,N/A,,Clear,0,2012-12-30 17:56:00
10:56 AM,48.0,35.1,61,30.22,10.0,East,3.5,-,N/A,,Clear,90,2012-12-30 18:56:00
11:56 AM,50.0,36.0,59,30.20,10.0,NNE,3.5,-,N/A,,Clear,30,2012-12-30 19:56:00
12:56 PM,48.0,37.0,66,30.20,10.0,NW,8.1,-,N/A,,Clear,320,2012-12-30 20:56:00
1:56 PM,50.0,37.9,63,30.19,10.0,NW,5.8,-,N/A,,Clear,320,2012-12-30 21:56:00
2:56 PM,48.9,37.0,64,30.17,10.0,NW,6.9,-,N/A,,Clear,320,2012-12-30 22:56:00
3:56 PM,46.9,37.9,71,30.17,10.0,NW,5.8,-,N/A,,Clear,320,2012-12-30 23:56:00
4:56 PM,44.1,37.0,76,30.17,10.0,North,4.6,-,N/A,,Clear,10,2012-12-31 00:56:00
5:56 PM,43.0,37.0,80,30.18,10.0,ENE,6.9,-,N/A,,Clear,60,2012-12-31 01:56:00
6:56 PM,41.0,33.1,73,30.19,10.0,NE,5.8,-,N/A,,Clear,40,2012-12-31 02:56:00
7:56 PM,42.1,33.1,70,30.19,10.0,NE,5.8,-,N/A,,Clear,50,2012-12-31 03:56:00
8:56 PM,39.9,32.0,73,30.20,10.0,ENE,5.8,-,N/A,,Clear,70,2012-12-31 04:56:00
9:56 PM,39.9,32.0,73,30.23,10.0,East,5.8,-,N/A,,Clear,80,2012-12-31 05:56:00
10:56 PM,39.0,32.0,76,30.25,10.0,ENE,6.9,-,N/A,,Clear,70,2012-12-31 06:56:00
11:56 PM,37.0,30.9,79,30.26,10.0,ENE,5.8,-,N/A,,Clear,60,2012-12-31 07:56:00